KSIY/SIY METAR and TAF weather

Enter ICAO airport designator
Station Type Date Time Source
KSIY METAR 2019/08/24 06:53 UTC NOAA

KSIY 240653Z AUTO 06005KT 10SM CLR 22/08 A2993 RMK AO2 SLP120 T02220083


Station Type Date Time Source
KSIY Decoded METAR 2019/08/24 06:53 UTC NOAA

Station name not available
Aug 24, 2019 - 02:53 AM EDT / 2019.08.24 0653 UTC
Wind: from the ENE (060 degrees) at 6 MPH (5 KT):0
Visibility: 10 mile(s):0
Sky conditions: clear
Temperature: 72.0 F (22.2 C)
Dew Point: 46.9 F (8.3 C)
Relative Humidity: 40%
Pressure (altimeter): 29.93 in. Hg (1013 hPa)
ob: KSIY 240653Z AUTO 06005KT 10SM CLR 22/08 A2993 RMK AO2 SLP120 T02220083
cycle: 7

Station Type Date Time Source
KSIY TAF UTC NOAA

Error!

Example: see airport list